createdAt,value
2023-04-11T00:01:02.711Z,5.94
2023-04-11T00:03:30.962Z,5.68
2023-04-11T00:05:58.578Z,5.69
2023-04-11T00:08:26.562Z,5.79
2023-04-11T00:10:53.591Z,5.83
2023-04-11T00:13:20.984Z,5.70
2023-04-11T00:15:48.188Z,5.59
2023-04-11T00:18:15.180Z,5.60
2023-04-11T00:20:42.129Z,5.61
2023-04-11T00:23:09.149Z,5.51
2023-04-11T00:25:37.416Z,5.49
2023-04-11T00:28:04.657Z,5.46
2023-04-11T00:30:31.712Z,5.39
2023-04-11T00:32:58.695Z,5.17
2023-04-11T00:35:25.827Z,5.31
2023-04-11T00:37:56.272Z,5.18
2023-04-11T00:40:23.386Z,5.16
2023-04-11T00:42:50.504Z,5.16
2023-04-11T00:45:17.677Z,5.17
2023-04-11T00:47:44.707Z,5.22
2023-04-11T00:50:14.185Z,5.10
2023-04-11T00:52:43.483Z,4.96
2023-04-11T00:55:10.765Z,4.96
2023-04-11T00:57:38.547Z,4.87
2023-04-11T01:00:09.906Z,4.90
2023-04-11T01:02:43.588Z,4.84
2023-04-11T01:05:15.058Z,4.81
2023-04-11T01:07:44.618Z,4.89
2023-04-11T01:10:13.267Z,4.88
2023-04-11T01:12:44.160Z,4.75
2023-04-11T01:15:11.538Z,4.66
2023-04-11T01:17:38.655Z,4.68
2023-04-11T01:20:07.964Z,4.75
2023-04-11T01:22:38.326Z,4.82
2023-04-11T01:25:05.674Z,4.61
2023-04-11T01:27:34.238Z,4.71
2023-04-11T01:30:01.942Z,4.64
2023-04-11T01:32:29.343Z,4.56
2023-04-11T01:34:58.807Z,4.56
2023-04-11T01:37:26.374Z,4.45
2023-04-11T01:39:53.915Z,4.30
2023-04-11T01:42:22.157Z,4.42
2023-04-11T01:44:51.412Z,4.28
2023-04-11T01:47:18.670Z,4.33
2023-04-11T01:49:46.200Z,4.35
2023-04-11T01:52:13.657Z,4.30
2023-04-11T01:54:41.349Z,4.43
2023-04-11T01:57:08.615Z,4.36
2023-04-11T01:59:37.038Z,4.24
2023-04-11T02:02:04.618Z,4.09
2023-04-11T02:04:32.180Z,4.27
2023-04-11T02:06:59.277Z,3.94
2023-04-11T02:09:26.410Z,4.25
2023-04-11T02:11:53.452Z,4.19
2023-04-11T02:14:20.990Z,4.04
2023-04-11T02:16:52.454Z,3.95
2023-04-11T02:19:21.114Z,4.05
2023-04-11T02:21:48.344Z,3.96
2023-04-11T02:24:15.870Z,3.93
2023-04-11T02:26:43.063Z,3.83
2023-04-11T02:29:10.392Z,3.89
2023-04-11T02:31:38.703Z,3.92
2023-04-11T02:34:06.130Z,3.96
2023-04-11T02:36:34.062Z,3.95
2023-04-11T02:39:01.112Z,3.75
2023-04-11T02:41:28.157Z,3.80
2023-04-11T02:43:55.408Z,3.85
2023-04-11T02:46:22.763Z,3.83
2023-04-11T02:48:49.992Z,3.64
2023-04-11T02:51:17.694Z,3.61
2023-04-11T02:53:44.954Z,3.70
2023-04-11T02:56:12.262Z,3.65
2023-04-11T02:58:41.843Z,3.72
2023-04-11T03:01:12.203Z,3.51
2023-04-11T03:03:39.177Z,3.63
2023-04-11T03:06:07.323Z,3.62
2023-04-11T03:08:36.033Z,3.63
2023-04-11T03:11:04.292Z,3.55
2023-04-11T03:13:31.376Z,3.45
2023-04-11T03:15:58.657Z,3.52
2023-04-11T03:18:25.774Z,3.49
2023-04-11T03:20:53.061Z,3.42
2023-04-11T03:23:20.415Z,3.43
2023-04-11T03:25:48.872Z,3.40
2023-04-11T03:28:16.241Z,3.37
2023-04-11T03:30:43.557Z,3.38
2023-04-11T03:33:10.922Z,3.36
2023-04-11T03:35:37.923Z,3.30
2023-04-11T03:38:04.986Z,3.11
2023-04-11T03:40:32.129Z,3.09
2023-04-11T03:43:04.462Z,3.06
2023-04-11T03:45:31.651Z,3.09
2023-04-11T03:47:59.180Z,3.15
2023-04-11T03:50:26.759Z,3.12
2023-04-11T03:52:53.999Z,2.97
2023-04-11T03:55:21.262Z,2.81
2023-04-11T03:57:48.285Z,2.87
2023-04-11T04:00:15.521Z,2.89
2023-04-11T04:02:43.141Z,2.86
2023-04-11T04:05:10.825Z,2.73
2023-04-11T04:07:38.111Z,2.80
2023-04-11T04:10:06.323Z,2.90
2023-04-11T04:12:34.259Z,2.84
2023-04-11T04:15:02.331Z,2.78
2023-04-11T04:17:29.983Z,2.82
2023-04-11T04:19:57.205Z,2.94
2023-04-11T04:22:26.692Z,3.08
2023-04-11T04:24:58.208Z,3.09
2023-04-11T04:27:26.172Z,2.96
2023-04-11T04:29:58.452Z,3.02
2023-04-11T04:32:31.962Z,3.05
2023-04-11T04:34:59.613Z,2.99
2023-04-11T04:37:28.117Z,2.86
2023-04-11T04:39:58.112Z,3.05
2023-04-11T04:42:27.491Z,3.00
2023-04-11T04:44:56.820Z,3.05
2023-04-11T04:47:25.908Z,3.15
2023-04-11T04:49:56.628Z,2.96
2023-04-11T04:52:24.909Z,3.17
2023-04-11T04:54:53.137Z,3.41
2023-04-11T04:57:21.307Z,3.33
2023-04-11T04:59:48.454Z,3.48
2023-04-11T05:02:17.370Z,3.41
2023-04-11T05:04:48.518Z,3.34
2023-04-11T05:07:16.212Z,3.49
2023-04-11T05:09:47.565Z,3.43
2023-04-11T05:12:16.338Z,3.60
2023-04-11T05:14:43.670Z,3.80
2023-04-11T05:17:10.793Z,3.96
2023-04-11T05:19:37.924Z,4.11
2023-04-11T05:22:05.760Z,4.22
2023-04-11T05:24:33.125Z,4.44
2023-04-11T05:27:00.688Z,4.51
2023-04-11T05:29:27.769Z,4.62
2023-04-11T05:31:54.977Z,4.73
2023-04-11T05:34:21.968Z,4.87
2023-04-11T05:36:49.121Z,4.98
2023-04-11T05:39:16.435Z,5.09
2023-04-11T05:41:43.545Z,5.25
2023-04-11T05:44:11.011Z,5.31
2023-04-11T05:46:38.496Z,5.53
2023-04-11T05:49:05.823Z,5.70
2023-04-11T05:51:33.134Z,5.78
2023-04-11T05:54:00.170Z,5.87
2023-04-11T05:56:27.147Z,6.10
2023-04-11T05:58:54.352Z,6.22
2023-04-11T06:01:22.252Z,6.49
2023-04-11T06:03:49.806Z,6.65
2023-04-11T06:06:16.982Z,6.79
2023-04-11T06:08:45.149Z,7.06
2023-04-11T06:11:12.497Z,7.20
2023-04-11T06:13:39.766Z,7.21
2023-04-11T06:16:07.304Z,7.42
2023-04-11T06:18:34.431Z,7.46
2023-04-11T06:21:01.577Z,7.57
2023-04-11T06:23:29.198Z,7.66
2023-04-11T06:25:56.085Z,7.67
2023-04-11T06:28:23.599Z,7.71
2023-04-11T06:30:52.229Z,7.76
2023-04-11T06:33:19.285Z,7.78
2023-04-11T06:35:46.356Z,7.82
2023-04-11T06:38:13.571Z,8.02
2023-04-11T06:40:40.543Z,8.11
2023-04-11T06:43:07.719Z,8.20
2023-04-11T06:45:35.031Z,8.38
2023-04-11T06:48:02.485Z,8.48
2023-04-11T06:50:29.490Z,8.48
2023-04-11T06:52:58.437Z,8.59
2023-04-11T06:55:25.902Z,8.62
2023-04-11T06:57:54.280Z,8.63
2023-04-11T07:00:21.783Z,8.74
2023-04-11T07:02:48.997Z,8.89
2023-04-11T07:05:16.581Z,9.06
2023-04-11T07:07:43.507Z,9.16
2023-04-11T07:10:10.956Z,9.16
2023-04-11T07:12:38.041Z,9.39
2023-04-11T07:15:05.705Z,9.54
2023-04-11T07:17:33.264Z,9.74
2023-04-11T07:20:01.034Z,9.79
2023-04-11T07:22:29.348Z,10.22
2023-04-11T07:24:57.544Z,10.52
2023-04-11T07:27:24.785Z,10.90
2023-04-11T07:29:52.180Z,11.32
2023-04-11T07:32:19.259Z,11.69
2023-04-11T07:34:46.649Z,12.19
2023-04-11T07:37:14.447Z,12.08
2023-04-11T07:39:41.730Z,12.05
2023-04-11T07:42:08.792Z,12.20
2023-04-11T07:44:36.213Z,12.74
2023-04-11T07:47:03.255Z,13.26
2023-04-11T07:49:30.339Z,13.29
2023-04-11T07:51:57.418Z,13.20
2023-04-11T07:54:25.413Z,13.00
2023-04-11T07:56:52.640Z,12.97
2023-04-11T07:59:19.604Z,12.82
2023-04-11T08:01:46.692Z,12.97
2023-04-11T08:04:14.302Z,13.06
2023-04-11T08:06:41.734Z,13.03
2023-04-11T08:09:09.010Z,13.28
2023-04-11T08:11:36.540Z,13.52
2023-04-11T08:14:03.753Z,13.48
2023-04-11T08:16:34.883Z,13.66
2023-04-11T08:19:02.070Z,13.84
2023-04-11T08:21:29.130Z,13.90
2023-04-11T08:23:56.401Z,13.81
2023-04-11T08:26:23.784Z,13.82
2023-04-11T08:28:51.147Z,13.45
2023-04-11T08:31:18.433Z,13.45
2023-04-11T08:33:45.994Z,13.30
2023-04-11T08:36:13.179Z,13.38
2023-04-11T08:38:40.911Z,13.69
2023-04-11T08:41:09.016Z,14.02
2023-04-11T08:43:39.086Z,13.89
2023-04-11T08:46:11.790Z,14.14
2023-04-11T08:48:39.139Z,14.74
2023-04-11T08:51:06.816Z,14.62
2023-04-11T08:53:37.134Z,14.42
2023-04-11T08:56:04.693Z,14.47
2023-04-11T08:58:33.194Z,14.92
2023-04-11T09:01:34.997Z,14.85
2023-04-11T09:04:08.633Z,15.22
2023-04-11T09:06:35.893Z,15.21
2023-04-11T09:09:08.313Z,14.88
2023-04-11T09:11:52.041Z,15.16
2023-04-11T09:14:25.116Z,15.18
2023-04-11T09:17:02.083Z,15.30
2023-04-11T09:19:31.684Z,15.18
2023-04-11T09:22:01.531Z,15.17
2023-04-11T09:24:34.712Z,15.42
2023-04-11T09:27:24.616Z,15.64
2023-04-11T09:29:52.042Z,15.99
2023-04-11T09:32:33.468Z,15.82
2023-04-11T09:35:20.758Z,15.96
2023-04-11T09:37:57.755Z,16.20
2023-04-11T09:40:28.338Z,16.07
2023-04-11T09:43:03.851Z,15.82
2023-04-11T09:45:38.233Z,16.02
2023-04-11T09:48:08.691Z,16.50
2023-04-11T09:50:37.037Z,16.41
2023-04-11T09:53:06.743Z,16.27
2023-04-11T09:55:33.882Z,16.34
2023-04-11T09:58:02.322Z,17.14
2023-04-11T10:00:30.277Z,17.90
2023-04-11T10:02:57.679Z,17.76
2023-04-11T10:05:27.705Z,17.46
2023-04-11T10:08:08.752Z,17.17
2023-04-11T10:10:36.585Z,17.10
2023-04-11T10:13:42.581Z,17.46
2023-04-11T10:16:16.370Z,17.54
2023-04-11T10:18:52.576Z,18.09
2023-04-11T10:21:29.104Z,19.51
2023-04-11T10:24:28.968Z,19.33
2023-04-11T10:26:56.149Z,20.07
2023-04-11T10:29:30.094Z,19.09
2023-04-11T10:32:15.731Z,18.99
2023-04-11T10:35:09.032Z,19.33
2023-04-11T10:37:37.163Z,19.48
2023-04-11T10:40:12.136Z,19.02
2023-04-11T10:42:40.148Z,18.56
2023-04-11T10:45:24.442Z,18.52
2023-04-11T10:47:51.695Z,18.76
2023-04-11T10:50:35.171Z,19.18
2023-04-11T10:53:04.897Z,19.53
2023-04-11T10:55:46.631Z,20.16
2023-04-11T10:58:16.793Z,20.00
2023-04-11T11:00:47.648Z,20.71
2023-04-11T11:03:16.426Z,20.13
2023-04-11T11:05:43.545Z,20.67
2023-04-11T11:08:10.908Z,20.86
2023-04-11T11:10:50.390Z,20.63
2023-04-11T11:13:17.664Z,20.51
2023-04-11T11:15:49.216Z,20.77
2023-04-11T11:18:18.193Z,21.42
2023-04-11T11:20:45.652Z,22.34
2023-04-11T11:23:12.820Z,21.72
2023-04-11T11:25:39.937Z,21.02
2023-04-11T11:28:08.063Z,21.90
2023-04-11T11:30:37.297Z,22.03
2023-04-11T11:33:16.405Z,22.53
2023-04-11T11:35:53.254Z,22.25
2023-04-11T11:38:22.204Z,21.73
2023-04-11T11:40:50.295Z,21.66
2023-04-11T11:43:18.424Z,20.94
2023-04-11T11:45:45.690Z,21.88
2023-04-11T11:48:24.655Z,22.83
2023-04-11T11:50:57.683Z,21.01
2023-04-11T11:53:26.320Z,20.84
2023-04-11T11:55:54.581Z,20.01
2023-04-11T11:58:22.997Z,20.90
2023-04-11T12:00:51.801Z,21.42
2023-04-11T12:03:24.382Z,21.96
2023-04-11T12:05:56.153Z,21.46
2023-04-11T12:08:24.473Z,20.58
2023-04-11T12:10:52.710Z,20.62
2023-04-11T12:13:23.770Z,20.08
2023-04-11T12:16:01.298Z,19.26
2023-04-11T12:18:31.325Z,19.73
2023-04-11T12:20:58.823Z,18.85
2023-04-11T12:23:26.144Z,18.24
2023-04-11T12:25:53.092Z,18.88
2023-04-11T12:28:20.677Z,18.46
2023-04-11T12:30:48.075Z,18.31
2023-04-11T12:33:16.563Z,18.38
2023-04-11T12:35:43.610Z,18.48
2023-04-11T12:38:13.282Z,19.18
2023-04-11T12:40:42.209Z,18.90
2023-04-11T12:43:09.254Z,18.89
2023-04-11T12:45:36.233Z,19.35
2023-04-11T12:48:03.871Z,19.19
2023-04-11T12:50:31.088Z,19.43
2023-04-11T12:52:58.182Z,19.51
2023-04-11T12:55:26.075Z,20.26
2023-04-11T12:57:53.065Z,21.31
2023-04-11T13:00:20.325Z,20.62
2023-04-11T13:02:48.678Z,20.28
2023-04-11T13:05:16.676Z,19.56
2023-04-11T13:07:45.175Z,19.37
2023-04-11T13:10:14.128Z,18.74
2023-04-11T13:12:44.721Z,18.81
2023-04-11T13:15:14.277Z,18.79
2023-04-11T13:17:41.848Z,18.35
2023-04-11T13:20:10.690Z,18.53
2023-04-11T13:22:42.220Z,18.81
2023-04-11T13:25:12.196Z,19.10
2023-04-11T13:27:40.228Z,19.48
2023-04-11T13:30:09.588Z,19.54
2023-04-11T13:32:36.744Z,19.82
2023-04-11T13:35:04.325Z,19.78
2023-04-11T13:37:33.971Z,19.18
2023-04-11T13:40:01.091Z,19.02
2023-04-11T13:42:28.325Z,19.17
2023-04-11T13:44:55.513Z,18.82
2023-04-11T13:47:22.594Z,18.73
2023-04-11T13:49:49.958Z,18.27
2023-04-11T13:52:17.264Z,18.40
2023-04-11T13:54:44.618Z,18.34
2023-04-11T13:57:15.791Z,18.37
2023-04-11T13:59:43.565Z,17.95
2023-04-11T14:02:11.126Z,17.82
2023-04-11T14:04:38.421Z,17.72
2023-04-11T14:07:05.700Z,17.84
2023-04-11T14:09:32.787Z,17.53
2023-04-11T14:11:59.706Z,17.55
2023-04-11T14:14:27.196Z,17.43
2023-04-11T14:16:54.465Z,17.44
2023-04-11T14:19:22.969Z,17.47
2023-04-11T14:21:51.376Z,17.66
2023-04-11T14:24:21.960Z,17.65
2023-04-11T14:26:50.214Z,18.01
2023-04-11T14:29:17.769Z,17.50
2023-04-11T14:31:45.471Z,17.38
2023-04-11T14:34:13.031Z,16.91
2023-04-11T14:36:40.131Z,16.67
2023-04-11T14:39:08.348Z,16.60
2023-04-11T14:41:36.359Z,16.24
2023-04-11T14:44:03.425Z,16.14
2023-04-11T14:46:30.413Z,16.04
2023-04-11T14:48:57.641Z,15.84
2023-04-11T14:51:27.309Z,15.87
2023-04-11T14:53:55.781Z,15.79
2023-04-11T14:56:24.403Z,15.49
2023-04-11T14:58:51.769Z,15.39
2023-04-11T15:01:22.770Z,15.27
2023-04-11T15:03:50.339Z,15.05
2023-04-11T15:06:18.285Z,14.93
2023-04-11T15:08:45.901Z,14.78
2023-04-11T15:11:13.483Z,14.66
2023-04-11T15:13:40.897Z,14.58
2023-04-11T15:16:08.686Z,14.28
2023-04-11T15:18:37.114Z,14.18
2023-04-11T15:21:04.577Z,14.03
2023-04-11T15:23:33.340Z,13.98
2023-04-11T15:26:02.765Z,13.85
2023-04-11T15:28:35.894Z,13.71
2023-04-11T15:31:04.971Z,13.76
2023-04-11T15:33:32.520Z,13.53
2023-04-11T15:36:00.752Z,13.28
2023-04-11T15:38:29.037Z,13.27
2023-04-11T15:40:59.972Z,13.05
2023-04-11T15:43:27.510Z,12.91
2023-04-11T15:45:54.903Z,12.59
2023-04-11T15:48:22.007Z,12.41
2023-04-11T15:50:49.276Z,12.26
2023-04-11T15:53:16.426Z,11.94
2023-04-11T15:55:44.285Z,11.85
2023-04-11T15:58:11.524Z,11.71
2023-04-11T16:00:39.953Z,11.53
2023-04-11T16:03:08.883Z,11.56
2023-04-11T16:05:38.444Z,11.65
2023-04-11T16:08:06.951Z,11.67
2023-04-11T16:10:34.418Z,11.44
2023-04-11T16:13:02.226Z,11.28
2023-04-11T16:15:29.603Z,11.38
2023-04-11T16:17:57.362Z,11.08
2023-04-11T16:20:24.830Z,11.31
2023-04-11T16:22:52.300Z,11.30
2023-04-11T16:25:21.393Z,11.31
2023-04-11T16:27:50.014Z,11.51
2023-04-11T16:30:18.322Z,11.59
2023-04-11T16:32:46.445Z,11.44
2023-04-11T16:35:13.570Z,11.15
2023-04-11T16:37:40.730Z,11.33
2023-04-11T16:40:12.053Z,11.33
2023-04-11T16:42:40.067Z,11.35
2023-04-11T16:45:08.193Z,11.52
2023-04-11T16:47:35.696Z,11.47
2023-04-11T16:50:03.894Z,11.51
2023-04-11T16:52:31.896Z,11.29
2023-04-11T16:54:59.289Z,11.24
2023-04-11T16:57:27.598Z,11.36
2023-04-11T16:59:54.746Z,11.26
2023-04-11T17:02:22.254Z,11.37
2023-04-11T17:04:49.584Z,11.48
2023-04-11T17:07:17.662Z,11.58
2023-04-11T17:09:47.713Z,11.50
2023-04-11T17:12:15.516Z,11.36
2023-04-11T17:14:42.526Z,11.43
2023-04-11T17:17:09.716Z,11.47
2023-04-11T17:19:36.979Z,11.46
2023-04-11T17:22:05.913Z,11.51
2023-04-11T17:24:32.895Z,11.55
2023-04-11T17:26:59.885Z,11.26
2023-04-11T17:29:27.746Z,11.34
2023-04-11T17:31:54.722Z,11.30
2023-04-11T17:34:21.675Z,11.37
2023-04-11T17:36:50.436Z,11.37
2023-04-11T17:39:18.261Z,11.43
2023-04-11T17:41:46.277Z,11.42
2023-04-11T17:44:13.761Z,11.45
2023-04-11T17:46:41.460Z,11.45
2023-04-11T17:49:08.816Z,11.42
2023-04-11T17:51:38.904Z,11.33
2023-04-11T17:54:08.780Z,11.26
2023-04-11T17:56:36.220Z,11.26
2023-04-11T17:59:03.617Z,11.09
2023-04-11T18:01:32.678Z,11.14
2023-04-11T18:04:01.834Z,11.08
2023-04-11T18:06:29.690Z,10.97
2023-04-11T18:08:57.014Z,11.10
2023-04-11T18:11:24.566Z,11.12
2023-04-11T18:13:52.098Z,11.25
2023-04-11T18:16:19.997Z,11.07
2023-04-11T18:18:48.276Z,10.97
2023-04-11T18:21:16.924Z,10.95
2023-04-11T18:23:46.083Z,11.01
2023-04-11T18:26:12.969Z,10.99
2023-04-11T18:28:40.564Z,10.73
2023-04-11T18:31:08.769Z,10.69
2023-04-11T18:33:37.618Z,10.66
2023-04-11T18:36:07.458Z,10.44
2023-04-11T18:38:34.577Z,10.45
2023-04-11T18:41:06.872Z,10.19
2023-04-11T18:43:35.234Z,10.30
2023-04-11T18:46:03.259Z,10.17
2023-04-11T18:48:31.811Z,10.18
2023-04-11T18:51:03.621Z,10.13
2023-04-11T18:53:31.491Z,9.92
2023-04-11T18:56:03.380Z,10.04
2023-04-11T18:58:34.271Z,9.85
2023-04-11T19:01:14.898Z,9.94
2023-04-11T19:03:53.728Z,9.93
2023-04-11T19:06:22.870Z,9.97
2023-04-11T19:08:51.017Z,9.98
2023-04-11T19:11:19.380Z,9.92
2023-04-11T19:13:47.336Z,9.89
2023-04-11T19:16:17.059Z,9.75
2023-04-11T19:18:50.725Z,9.74
2023-04-11T19:21:18.778Z,9.73
2023-04-11T19:23:46.458Z,9.58
2023-04-11T19:26:15.285Z,9.54
2023-04-11T19:28:42.940Z,9.47
2023-04-11T19:31:10.893Z,9.41
2023-04-11T19:33:39.146Z,9.34
2023-04-11T19:36:08.522Z,9.49
2023-04-11T19:38:36.826Z,9.37
2023-04-11T19:41:15.026Z,9.48
2023-04-11T19:43:43.444Z,9.47
2023-04-11T19:46:17.480Z,9.45
2023-04-11T19:48:45.727Z,9.48
2023-04-11T19:51:15.531Z,9.49
2023-04-11T19:53:44.386Z,9.47
2023-04-11T19:56:11.656Z,9.40
2023-04-11T19:58:40.389Z,9.31
2023-04-11T20:01:08.535Z,9.30
2023-04-11T20:03:36.606Z,9.25
2023-04-11T20:06:05.943Z,9.16
2023-04-11T20:08:37.218Z,9.19
2023-04-11T20:11:06.996Z,9.23
2023-04-11T20:13:36.462Z,9.23
2023-04-11T20:16:08.239Z,9.20
2023-04-11T20:18:35.926Z,9.00
2023-04-11T20:21:06.832Z,9.06
2023-04-11T20:23:35.932Z,9.15
2023-04-11T20:26:03.962Z,9.17
2023-04-11T20:28:32.429Z,9.16
2023-04-11T20:31:00.176Z,9.31
2023-04-11T20:33:27.797Z,9.28
2023-04-11T20:35:57.051Z,9.14
2023-04-11T20:38:24.376Z,9.15
2023-04-11T20:40:51.449Z,9.11
2023-04-11T20:43:18.592Z,9.26
2023-04-11T20:45:46.012Z,9.23
2023-04-11T20:48:13.850Z,9.19
2023-04-11T20:50:41.996Z,9.17
2023-04-11T20:53:09.260Z,9.04
2023-04-11T20:55:36.550Z,9.03
2023-04-11T20:58:08.589Z,8.96
2023-04-11T21:00:36.105Z,8.93
2023-04-11T21:03:03.375Z,8.82
2023-04-11T21:05:30.497Z,8.64
2023-04-11T21:07:58.408Z,8.67
2023-04-11T21:10:25.963Z,8.56
2023-04-11T21:12:54.197Z,8.48
2023-04-11T21:15:22.087Z,8.43
2023-04-11T21:17:50.311Z,8.43
2023-04-11T21:20:18.209Z,8.37
2023-04-11T21:22:49.799Z,8.25
2023-04-11T21:25:17.110Z,8.23
2023-04-11T21:27:44.902Z,8.11
2023-04-11T21:30:13.087Z,8.15
2023-04-11T21:32:41.236Z,8.10
2023-04-11T21:35:10.571Z,8.02
2023-04-11T21:37:37.541Z,8.12
2023-04-11T21:40:05.185Z,8.16
2023-04-11T21:42:32.348Z,8.09
2023-04-11T21:44:59.518Z,8.04
2023-04-11T21:47:26.645Z,8.13
2023-04-11T21:49:56.374Z,8.16
2023-04-11T21:52:23.375Z,8.21
2023-04-11T21:54:50.504Z,8.12
2023-04-11T21:57:17.602Z,8.17
2023-04-11T21:59:45.204Z,8.13
2023-04-11T22:02:12.904Z,8.04
2023-04-11T22:04:55.560Z,8.03
2023-04-11T22:07:31.680Z,7.94
2023-04-11T22:10:03.562Z,7.89
2023-04-11T22:12:31.198Z,7.86
2023-04-11T22:14:58.096Z,7.70
2023-04-11T22:17:25.236Z,7.81
2023-04-11T22:19:52.161Z,7.74
2023-04-11T22:22:19.243Z,7.71
2023-04-11T22:24:46.534Z,7.67
2023-04-11T22:27:13.768Z,7.63
2023-04-11T22:29:41.410Z,7.63
2023-04-11T22:32:08.826Z,7.50
2023-04-11T22:34:35.647Z,7.46
2023-04-11T22:37:03.063Z,7.48
2023-04-11T22:39:30.224Z,7.38
2023-04-11T22:41:57.612Z,7.40
2023-04-11T22:44:24.972Z,7.33
2023-04-11T22:47:00.679Z,7.32
2023-04-11T22:49:27.857Z,7.33
2023-04-11T22:51:59.427Z,7.31
2023-04-11T22:54:27.306Z,7.19
2023-04-11T22:56:56.788Z,7.25
2023-04-11T22:59:28.147Z,7.28
2023-04-11T23:01:55.458Z,7.16
2023-04-11T23:04:22.771Z,7.14
2023-04-11T23:06:51.313Z,7.02
2023-04-11T23:09:18.920Z,7.01
2023-04-11T23:11:47.675Z,7.01
2023-04-11T23:14:18.393Z,6.89
2023-04-11T23:16:45.461Z,7.06
2023-04-11T23:19:12.711Z,7.03
2023-04-11T23:21:39.963Z,6.88
2023-04-11T23:24:07.131Z,6.83
2023-04-11T23:26:34.131Z,6.87
2023-04-11T23:29:04.980Z,6.97
2023-04-11T23:31:32.802Z,6.84
2023-04-11T23:34:00.760Z,6.85
2023-04-11T23:36:29.293Z,6.81
2023-04-11T23:38:56.984Z,6.82
2023-04-11T23:41:24.158Z,6.77
2023-04-11T23:43:51.894Z,6.70
2023-04-11T23:46:19.341Z,6.71
2023-04-11T23:48:49.565Z,6.72
2023-04-11T23:51:16.751Z,6.78
2023-04-11T23:53:45.665Z,6.79
2023-04-11T23:56:12.825Z,6.73
2023-04-11T23:58:39.762Z,6.65
